Time;durP1;ratioP1;P1;durP2;ratioP2;P2;SDS_P1;SDS_P2;PMS_P1;PMS_P2;Temp;Humidity;BMP_temperature;BMP_pressure;BME280_temperature;BME280_humidity;BME280_pressure;Samples;Min_cycle;Max_cycle;Signal;HPM_P1;HPM_P2
2023/10/18 00:00:05;;;;;;;927.00;868.90;;;3.20;99.90;;;;;;5015838;28;20487;-70
2023/10/18 00:02:32;;;;;;;918.93;862.07;;;3.30;99.90;;;;;;5015848;28;20453;-70
2023/10/18 00:04:59;;;;;;;911.37;854.27;;;3.30;99.90;;;;;;5015653;28;20453;-71
2023/10/18 00:07:27;;;;;;;962.77;900.43;;;3.40;99.90;;;;;;5015600;28;20455;-70
2023/10/18 00:09:56;;;;;;;938.13;878.90;;;3.50;99.90;;;;;;5015536;28;20441;-70
2023/10/18 00:12:23;;;;;;;906.77;850.10;;;3.40;99.90;;;;;;5015689;28;20455;-70
2023/10/18 00:14:52;;;;;;;901.40;846.10;;;3.40;99.90;;;;;;5015551;28;20450;-70
2023/10/18 00:17:19;;;;;;;894.80;840.03;;;3.30;99.90;;;;;;5015472;28;20484;-70
2023/10/18 00:19:46;;;;;;;918.80;861.73;;;3.30;99.90;;;;;;5015348;28;20485;-70
2023/10/18 00:22:13;;;;;;;900.30;844.57;;;3.40;99.90;;;;;;5015889;28;20867;-70
2023/10/18 00:24:40;;;;;;;878.70;825.07;;;3.50;99.90;;;;;;5015160;28;20475;-70
2023/10/18 00:27:09;;;;;;;953.70;894.33;;;3.50;99.90;;;;;;5015489;28;20453;-70
2023/10/18 00:29:36;;;;;;;959.53;898.87;;;3.50;99.90;;;;;;5015372;28;20812;-70
2023/10/18 00:32:06;;;;;;;908.70;852.27;;;3.50;99.90;;;;;;5015583;28;20453;-70
2023/10/18 00:34:33;;;;;;;887.90;834.17;;;3.50;99.90;;;;;;5014976;28;20453;-70
2023/10/18 00:37:00;;;;;;;875.03;821.73;;;3.40;99.90;;;;;;5015187;28;20455;-70
2023/10/18 00:39:28;;;;;;;881.20;828.10;;;3.40;99.90;;;;;;5015172;28;20484;-70
2023/10/18 00:41:58;;;;;;;877.37;823.67;;;3.30;99.90;;;;;;5014983;28;20544;-70
2023/10/18 00:44:27;;;;;;;886.23;832.07;;;3.30;99.90;;;;;;5014939;28;20453;-71
2023/10/18 00:46:55;;;;;;;895.10;840.77;;;3.30;99.90;;;;;;5015068;28;20458;-70
2023/10/18 00:49:22;;;;;;;918.53;861.63;;;3.30;99.90;;;;;;5014718;28;20449;-70
2023/10/18 00:51:50;;;;;;;942.43;882.67;;;3.50;99.90;;;;;;5014629;28;20549;-71
2023/10/18 00:54:19;;;;;;;947.70;887.20;;;3.60;99.90;;;;;;5014710;28;20937;-70
2023/10/18 00:56:46;;;;;;;935.33;876.47;;;3.70;99.90;;;;;;5014898;28;20880;-70
2023/10/18 00:59:26;;;;;;;941.50;882.63;;;3.70;99.90;;;;;;5014682;28;20569;-70
2023/10/18 01:02:00;;;;;;;904.30;848.50;;;3.80;99.90;;;;;;5014648;28;20452;-71
2023/10/18 01:04:29;;;;;;;880.20;826.73;;;3.70;99.90;;;;;;5014591;28;20832;-70
2023/10/18 01:06:57;;;;;;;866.03;813.83;;;3.70;99.90;;;;;;5014511;28;20456;-70
2023/10/18 01:09:26;;;;;;;845.47;794.87;;;3.60;99.90;;;;;;5014355;28;20536;-71
2023/10/18 01:11:53;;;;;;;807.27;758.97;;;3.60;99.90;;;;;;5014427;28;20828;-70
2023/10/18 01:14:25;;;;;;;815.83;767.23;;;3.40;99.90;;;;;;5014356;28;21023;-70
2023/10/18 01:16:53;;;;;;;826.80;777.90;;;3.40;99.90;;;;;;5014594;28;20449;-70
2023/10/18 01:19:22;;;;;;;837.47;787.40;;;3.30;99.90;;;;;;5014300;28;20552;-70
2023/10/18 01:21:51;;;;;;;859.47;807.43;;;3.20;99.90;;;;;;5014394;28;20544;-70
2023/10/18 01:24:19;;;;;;;855.47;804.00;;;3.10;99.90;;;;;;5014184;28;20476;-70
2023/10/18 01:26:47;;;;;;;938.50;880.23;;;3.10;99.90;;;;;;5014216;28;20959;-71
2023/10/18 01:29:15;;;;;;;927.10;869.90;;;3.10;99.90;;;;;;5013920;28;20449;-71
2023/10/18 01:31:45;;;;;;;975.30;912.37;;;3.10;99.90;;;;;;5014190;28;20843;-70
2023/10/18 01:34:12;;;;;;;989.77;923.37;;;3.20;99.90;;;;;;5014052;28;20540;-70
2023/10/18 01:36:42;;;;;;;997.67;930.07;;;3.40;99.90;;;;;;5013930;28;20540;-70
2023/10/18 01:39:20;;;;;;;970.70;907.23;;;3.40;99.90;;;;;;5013845;28;20473;-70
2023/10/18 01:41:50;;;;;;;983.80;918.27;;;3.40;99.90;;;;;;5013693;28;20453;-70
2023/10/18 01:44:27;;;;;;;962.30;899.60;;;3.50;99.90;;;;;;5013964;28;20877;-70
2023/10/18 01:47:02;;;;;;;985.37;921.97;;;3.50;99.90;;;;;;5013944;28;20452;-71
2023/10/18 01:49:29;;;;;;;990.13;927.73;;;3.60;99.90;;;;;;5013780;28;20489;-71
2023/10/18 01:51:57;;;;;;;981.03;915.87;;;3.60;99.90;;;;;;5013912;28;20454;-71
2023/10/18 01:54:26;;;;;;;990.93;923.17;;;3.70;99.90;;;;;;5013509;28;20452;-71
2023/10/18 01:56:54;;;;;;;1008.00;939.97;;;3.90;99.90;;;;;;5013578;28;20980;-71
2023/10/18 01:59:25;;;;;;;994.27;930.10;;;4.00;99.90;;;;;;5013611;28;20522;-71
2023/10/18 02:01:55;;;;;;;978.03;915.93;;;4.10;99.90;;;;;;5013371;28;20456;-71
2023/10/18 02:04:25;;;;;;;957.13;898.37;;;4.10;99.90;;;;;;5013397;28;20457;-71
2023/10/18 02:06:53;;;;;;;963.37;904.30;;;4.10;99.90;;;;;;5013428;28;20484;-71
2023/10/18 02:09:20;;;;;;;960.43;901.43;;;4.10;99.90;;;;;;5013383;28;20945;-71
2023/10/18 02:11:47;;;;;;;922.60;866.83;;;4.20;99.90;;;;;;5013430;28;20880;-71
2023/10/18 02:14:15;;;;;;;934.13;878.27;;;4.20;99.90;;;;;;5013270;28;20516;-71
2023/10/18 02:16:45;;;;;;;920.20;865.73;;;4.20;99.90;;;;;;5013315;28;20536;-71
2023/10/18 02:19:15;;;;;;;894.00;841.13;;;4.30;99.90;;;;;;5012442;28;20488;-71
2023/10/18 02:21:42;;;;;;;890.20;838.10;;;4.30;99.90;;;;;;5013100;28;20902;-71
2023/10/18 02:24:12;;;;;;;841.63;792.90;;;4.40;99.90;;;;;;5013227;28;20910;-71
2023/10/18 02:26:48;;;;;;;815.50;769.33;;;4.50;99.90;;;;;;5013218;28;20453;-71
2023/10/18 02:29:17;;;;;;;771.90;730.27;;;4.50;99.90;;;;;;5013112;28;20448;-71
2023/10/18 02:31:57;;;;;;;688.73;653.53;;;4.60;99.90;;;;;;5012751;28;20449;-71
2023/10/18 02:34:25;;;;;;;621.17;590.20;;;4.70;99.90;;;;;;5012826;28;20536;-70
2023/10/18 02:36:53;;;;;;;589.83;562.30;;;4.70;99.90;;;;;;5012894;28;20547;-70
2023/10/18 02:39:24;;;;;;;537.00;512.60;;;4.70;99.90;;;;;;5012921;28;20575;-70
2023/10/18 02:41:52;;;;;;;562.33;536.67;;;4.60;99.90;;;;;;5012925;28;20754;-70
2023/10/18 02:44:23;;;;;;;533.67;510.07;;;4.60;99.90;;;;;;5012630;28;20959;-70
2023/10/18 02:46:52;;;;;;;549.00;525.30;;;4.60;99.90;;;;;;5012657;28;20797;-70
2023/10/18 02:49:20;;;;;;;537.67;514.50;;;4.60;99.90;;;;;;5012756;28;20451;-70
2023/10/18 02:51:47;;;;;;;540.00;516.33;;;4.60;99.90;;;;;;5012689;28;20477;-70
2023/10/18 02:54:20;;;;;;;533.33;510.43;;;4.60;99.90;;;;;;5012691;28;20536;-71
2023/10/18 02:56:51;;;;;;;536.30;513.33;;;4.60;99.90;;;;;;5012754;28;20481;-71
2023/10/18 02:59:21;;;;;;;493.80;473.70;;;4.60;99.90;;;;;;5012491;28;20473;-71
2023/10/18 03:01:50;;;;;;;508.40;486.97;;;4.60;99.90;;;;;;5012678;28;20453;-70
2023/10/18 03:04:20;;;;;;;507.60;486.60;;;4.50;99.90;;;;;;5012629;28;20481;-70
2023/10/18 03:06:47;;;;;;;504.53;483.83;;;4.50;99.90;;;;;;5012694;28;20480;-70
2023/10/18 03:09:27;;;;;;;498.73;477.77;;;4.50;99.90;;;;;;5012476;28;20936;-67
2023/10/18 03:11:55;;;;;;;531.30;508.50;;;4.40;99.90;;;;;;5012683;28;20440;-67
2023/10/18 03:14:36;;;;;;;558.50;534.30;;;4.40;99.90;;;;;;5012518;28;20856;-67
2023/10/18 03:17:15;;;;;;;576.13;550.77;;;4.40;99.90;;;;;;5012570;28;20861;-67
2023/10/18 03:19:44;;;;;;;583.17;557.57;;;4.40;99.90;;;;;;5012402;28;20488;-67
2023/10/18 03:22:11;;;;;;;650.40;620.20;;;4.30;99.90;;;;;;5012149;28;20457;-67
2023/10/18 03:24:38;;;;;;;653.40;622.50;;;4.40;99.90;;;;;;5012448;28;20872;-68
2023/10/18 03:27:08;;;;;;;614.60;586.27;;;4.50;99.90;;;;;;5012244;28;20449;-67
2023/10/18 03:29:38;;;;;;;579.53;553.40;;;4.60;99.90;;;;;;5012372;28;20456;-68
2023/10/18 03:32:08;;;;;;;531.30;508.20;;;4.60;99.90;;;;;;5015289;28;20481;-68
2023/10/18 03:34:41;;;;;;;518.90;497.00;;;4.70;99.90;;;;;;5015895;28;20457;-68
2023/10/18 03:37:18;;;;;;;509.63;488.13;;;4.60;99.90;;;;;;5016475;28;20485;-68
2023/10/18 03:39:47;;;;;;;482.60;462.67;;;4.70;99.90;;;;;;5016106;28;20476;-67
2023/10/18 03:42:26;;;;;;;452.73;434.30;;;4.80;99.90;;;;;;5016157;28;20452;-67
2023/10/18 03:44:57;;;;;;;459.97;441.37;;;4.70;99.90;;;;;;5015911;28;20456;-67
2023/10/18 03:47:25;;;;;;;456.50;438.20;;;4.70;99.90;;;;;;5016060;28;20445;-67
2023/10/18 03:49:53;;;;;;;436.93;419.93;;;4.80;99.90;;;;;;5016061;28;20456;-68
2023/10/18 03:52:21;;;;;;;418.07;401.80;;;4.80;99.90;;;;;;5015789;28;20964;-67
2023/10/18 03:55:05;;;;;;;408.20;392.53;;;4.80;99.90;;;;;;5015839;28;20457;-67
2023/10/18 03:57:37;;;;;;;395.73;380.63;;;4.70;99.90;;;;;;5015866;28;20455;-68
2023/10/18 04:02:52;;;;;;;392.13;376.87;;;4.70;99.90;;;;;;5012190;28;20456;-68
2023/10/18 04:05:30;;;;;;;428.27;411.10;;;4.70;99.90;;;;;;5016155;28;20449;-68
2023/10/18 04:07:57;;;;;;;414.57;397.60;;;4.70;99.90;;;;;;5015535;28;20433;-68
2023/10/18 04:10:25;;;;;;;411.30;394.37;;;4.70;99.90;;;;;;5016088;28;20846;-67
2023/10/18 04:12:53;;;;;;;372.20;357.40;;;4.90;99.90;;;;;;5015772;28;20449;-67
2023/10/18 04:15:23;;;;;;;358.50;344.50;;;4.90;99.90;;;;;;5015253;28;20444;-67
2023/10/18 04:18:02;;;;;;;389.57;374.07;;;4.70;99.90;;;;;;5015468;28;20536;-67
2023/10/18 04:20:32;;;;;;;402.83;386.40;;;4.70;99.90;;;;;;5015366;28;20824;-67
2023/10/18 04:23:00;;;;;;;389.13;373.47;;;4.80;99.90;;;;;;5015523;28;20453;-67
2023/10/18 04:25:27;;;;;;;383.33;368.10;;;4.70;99.90;;;;;;5015409;28;20815;-67
2023/10/18 04:27:54;;;;;;;380.77;365.43;;;4.80;99.90;;;;;;5015299;28;20536;-67
2023/10/18 04:30:23;;;;;;;380.50;365.60;;;4.80;99.90;;;;;;5015261;28;20446;-68
2023/10/18 04:32:54;;;;;;;344.17;330.87;;;4.80;99.90;;;;;;5014915;28;20453;-67
2023/10/18 04:35:29;;;;;;;294.27;283.77;;;4.90;99.90;;;;;;5015242;28;20461;-68
2023/10/18 04:37:56;;;;;;;250.23;241.33;;;5.00;99.90;;;;;;5015094;28;20452;-67
2023/10/18 04:40:25;;;;;;;229.30;221.10;;;5.00;99.90;;;;;;4995629;28;20484;-67
2023/10/18 04:42:54;;;;;;;206.23;199.13;;;5.00;99.90;;;;;;4994773;28;20830;-67
2023/10/18 04:45:24;;;;;;;171.40;165.50;;;5.10;99.90;;;;;;4995216;28;20450;-67
2023/10/18 04:47:58;;;;;;;160.00;154.30;;;5.10;99.90;;;;;;4995533;28;20489;-67
2023/10/18 04:50:29;;;;;;;147.47;142.17;;;5.10;99.90;;;;;;4995407;28;20450;-67
2023/10/18 04:52:58;;;;;;;124.77;120.37;;;5.10;99.90;;;;;;4995190;28;20863;-67
2023/10/18 04:55:27;;;;;;;104.33;100.50;;;5.20;99.90;;;;;;4995137;28;20454;-68
2023/10/18 04:57:53;;;;;;;89.43;85.80;;;5.20;99.90;;;;;;4994982;28;20934;-67
2023/10/18 05:00:35;;;;;;;84.63;81.27;;;5.20;99.90;;;;;;4994894;28;20481;-67
2023/10/18 05:03:02;;;;;;;76.60;73.30;;;5.20;99.90;;;;;;4995306;28;20566;-67
2023/10/18 05:05:29;;;;;;;76.23;73.23;;;5.20;99.90;;;;;;4994823;28;20980;-67
2023/10/18 05:07:56;;;;;;;77.40;74.27;;;5.20;99.90;;;;;;4994744;28;20450;-67
2023/10/18 05:10:23;;;;;;;78.97;75.67;;;5.20;99.90;;;;;;4994812;28;20496;-67
2023/10/18 05:12:53;;;;;;;69.67;66.77;;;5.20;99.90;;;;;;4994997;28;20881;-67
2023/10/18 05:15:31;;;;;;;59.67;57.07;;;5.30;99.90;;;;;;4994903;28;20457;-67
2023/10/18 05:18:05;;;;;;;58.63;55.77;;;5.30;99.50;;;;;;4994756;28;20449;-67
2023/10/18 05:20:55;;;;;;;50.27;47.97;;;5.40;99.50;;;;;;4994506;28;20484;-67
2023/10/18 05:23:23;;;;;;;46.20;44.00;;;5.40;98.50;;;;;;4994810;28;20451;-67
2023/10/18 05:25:56;;;;;;;35.20;33.30;;;5.40;97.40;;;;;;4994383;28;20446;-67
2023/10/18 05:28:26;;;;;;;36.47;34.47;;;5.50;97.10;;;;;;4994656;28;20548;-67
2023/10/18 05:36:35;;;;;;;29.10;27.37;;;5.50;96.30;;;;;;4994217;28;20894;-67
2023/10/18 05:41:49;;;;;;;27.50;25.73;;;5.50;96.30;;;;;;4993706;28;20832;-67
2023/10/18 05:44:15;;;;;;;27.70;26.10;;;5.60;96.40;;;;;;4994572;28;20939;-67
2023/10/18 05:46:46;;;;;;;21.93;20.20;;;5.60;96.70;;;;;;4994678;28;20489;-67
2023/10/18 05:49:15;;;;;;;21.10;19.20;;;5.60;96.40;;;;;;4994270;28;20442;-67
2023/10/18 05:51:52;;;;;;;18.17;16.97;;;5.60;96.40;;;;;;4993794;28;20453;-68
2023/10/18 05:54:21;;;;;;;19.20;17.80;;;5.60;96.40;;;;;;4992942;28;20438;-67
2023/10/18 05:56:50;;;;;;;20.33;18.63;;;5.60;96.40;;;;;;4994187;28;20456;-67
2023/10/18 05:59:27;;;;;;;17.37;15.60;;;5.60;96.40;;;;;;4994256;28;20459;-68
2023/10/18 06:01:58;;;;;;;16.87;15.47;;;5.60;96.40;;;;;;4993845;28;20462;-67
2023/10/18 06:04:25;;;;;;;17.17;15.77;;;5.60;96.30;;;;;;4994346;28;20454;-67
2023/10/18 06:06:55;;;;;;;18.80;17.00;;;5.60;96.40;;;;;;4994082;28;20536;-67
2023/10/18 06:09:27;;;;;;;21.00;19.30;;;5.50;96.30;;;;;;4993906;28;20465;-67
2023/10/18 06:11:55;;;;;;;24.30;22.33;;;5.50;96.30;;;;;;4994038;28;20434;-67
2023/10/18 06:14:25;;;;;;;20.60;19.20;;;5.50;96.30;;;;;;4993827;28;20989;-67
2023/10/18 06:17:06;;;;;;;24.27;22.23;;;5.40;96.30;;;;;;4994150;28;20451;-67
2023/10/18 06:19:36;;;;;;;26.17;24.10;;;5.40;96.30;;;;;;4993544;28;20453;-67
2023/10/18 06:22:15;;;;;;;26.87;24.90;;;5.40;96.30;;;;;;4993642;28;20482;-67
2023/10/18 06:24:45;;;;;;;25.33;23.47;;;5.50;96.30;;;;;;4993498;28;20458;-67
2023/10/18 06:27:15;;;;;;;27.03;25.43;;;5.60;96.40;;;;;;4993518;28;20537;-67
2023/10/18 06:29:43;;;;;;;30.50;28.20;;;5.60;96.40;;;;;;4993858;28;20455;-67
2023/10/18 06:32:13;;;;;;;25.93;24.23;;;5.60;96.40;;;;;;4993295;28;20946;-67
2023/10/18 06:34:43;;;;;;;19.13;17.83;;;5.70;96.40;;;;;;4993229;28;20455;-67
2023/10/18 06:37:22;;;;;;;17.37;15.97;;;5.80;95.20;;;;;;4993500;28;20460;-67
2023/10/18 06:39:51;;;;;;;15.80;14.30;;;5.80;95.20;;;;;;4993722;28;20555;-67
2023/10/18 06:42:19;;;;;;;16.13;14.63;;;5.90;94.30;;;;;;4993050;28;20450;-67
2023/10/18 06:44:46;;;;;;;14.90;13.40;;;6.00;94.90;;;;;;4993183;28;20489;-67
2023/10/18 06:47:14;;;;;;;12.20;11.03;;;6.00;93.20;;;;;;4991658;28;20461;-67
2023/10/18 06:49:43;;;;;;;12.30;11.10;;;6.10;93.30;;;;;;4992892;28;20482;-67
2023/10/18 06:52:14;;;;;;;12.00;10.73;;;6.20;93.30;;;;;;5004237;28;20465;-67
2023/10/18 06:54:41;;;;;;;15.40;11.30;;;6.40;92.00;;;;;;5011753;28;20857;-68
2023/10/18 06:57:16;;;;;;;12.00;9.00;;;6.40;92.20;;;;;;5011923;28;20532;-67
2023/10/18 06:59:46;;;;;;;12.10;8.10;;;6.50;90.10;;;;;;4997861;28;20671;-67
2023/10/18 07:02:14;;;;;;;10.30;7.90;;;6.70;90.10;;;;;;4992243;28;20989;-67
2023/10/18 07:04:50;;;;;;;11.50;7.53;;;6.80;90.50;;;;;;4992588;28;20823;-68
2023/10/18 07:07:20;;;;;;;10.57;7.70;;;6.90;90.20;;;;;;4991732;28;20485;-70
2023/10/18 07:09:52;;;;;;;11.70;7.60;;;7.00;90.20;;;;;;4991715;28;20457;-71
2023/10/18 07:12:19;;;;;;;11.50;7.87;;;7.10;90.30;;;;;;4991836;28;20451;-70
2023/10/18 07:14:47;;;;;;;12.37;7.47;;;7.20;90.30;;;;;;4992189;28;20514;-70
2023/10/18 07:17:15;;;;;;;9.47;7.50;;;7.30;90.30;;;;;;4992323;28;20464;-71
2023/10/18 07:19:48;;;;;;;13.83;9.10;;;7.40;89.30;;;;;;4992611;28;20456;-71
2023/10/18 07:22:19;;;;;;;12.70;7.30;;;7.50;83.50;;;;;;4993017;28;20525;-71
2023/10/18 07:24:53;;;;;;;7.93;6.40;;;7.60;83.60;;;;;;4992709;28;20542;-71
2023/10/18 07:27:23;;;;;;;12.17;7.00;;;7.70;83.70;;;;;;4991266;28;20450;-70
2023/10/18 07:29:50;;;;;;;14.57;7.50;;;7.80;78.30;;;;;;4992823;28;20460;-71
2023/10/18 07:32:20;;;;;;;10.10;6.33;;;7.90;76.10;;;;;;4992093;28;20492;-71
2023/10/18 07:34:49;;;;;;;12.20;7.40;;;8.00;76.20;;;;;;4992655;28;20467;-70
2023/10/18 07:37:23;;;;;;;12.30;8.07;;;8.10;76.30;;;;;;4992536;28;20940;-70
2023/10/18 07:39:56;;;;;;;13.33;6.83;;;8.10;76.20;;;;;;4993899;28;20444;-72
2023/10/18 07:42:26;;;;;;;14.30;6.63;;;8.20;77.10;;;;;;4992826;28;20460;-71
2023/10/18 07:44:55;;;;;;;10.00;6.53;;;8.30;76.40;;;;;;4992702;28;20454;-71
2023/10/18 07:47:25;;;;;;;12.30;8.33;;;8.40;76.50;;;;;;4992550;28;20544;-67
2023/10/18 07:49:55;;;;;;;15.53;7.30;;;8.40;69.30;;;;;;5012231;28;20453;-67
2023/10/18 07:52:22;;;;;;;11.60;7.00;;;8.50;73.70;;;;;;5012196;28;20523;-68
2023/10/18 07:54:49;;;;;;;14.07;7.10;;;8.50;71.30;;;;;;5008480;28;20819;-67
2023/10/18 07:57:17;;;;;;;13.17;7.50;;;8.70;71.20;;;;;;5012245;28;20452;-68
2023/10/18 07:59:48;;;;;;;11.37;7.40;;;8.70;68.90;;;;;;5012191;28;20547;-67
2023/10/18 08:02:19;;;;;;;13.17;8.10;;;8.80;69.00;;;;;;5011923;28;20508;-68
2023/10/18 08:04:47;;;;;;;11.70;7.77;;;8.80;69.00;;;;;;5012001;28;20551;-68
2023/10/18 08:07:19;;;;;;;12.87;7.30;;;8.80;69.00;;;;;;5011930;28;20449;-68
2023/10/18 08:09:48;;;;;;;11.27;7.83;;;8.90;69.10;;;;;;5011441;28;20453;-68
2023/10/18 08:12:29;;;;;;;11.70;7.43;;;8.90;65.10;;;;;;5012085;28;20472;-68
2023/10/18 08:14:57;;;;;;;12.40;7.10;;;9.00;68.70;;;;;;5011584;28;20468;-68
2023/10/18 08:17:30;;;;;;;11.60;8.00;;;9.20;66.70;;;;;;5012185;28;20512;-68
2023/10/18 08:20:17;;;;;;;11.60;8.00;;;9.20;64.40;;;;;;5014070;28;20473;-68
2023/10/18 08:22:44;;;;;;;14.63;8.53;;;9.40;68.70;;;;;;5014302;28;20449;-67
2023/10/18 08:25:23;;;;;;;13.27;7.50;;;9.60;66.20;;;;;;5014465;28;20460;-68
2023/10/18 08:27:50;;;;;;;12.10;7.83;;;9.70;61.70;;;;;;5014914;28;20495;-68
2023/10/18 08:30:24;;;;;;;12.90;8.40;;;9.80;61.80;;;;;;5014125;28;20497;-68
2023/10/18 08:32:51;;;;;;;13.17;8.27;;;10.00;61.00;;;;;;5014335;28;20456;-68
2023/10/18 08:35:20;;;;;;;13.50;8.10;;;10.00;60.90;;;;;;5015062;28;20540;-67
2023/10/18 08:37:48;;;;;;;12.20;7.63;;;10.10;61.10;;;;;;5015057;28;20476;-68
2023/10/18 08:40:27;;;;;;;13.30;8.47;;;10.20;61.10;;;;;;5014897;28;20547;-68
2023/10/18 08:43:05;;;;;;;16.17;8.10;;;10.20;61.20;;;;;;5014610;28;20833;-68
2023/10/18 08:45:36;;;;;;;12.90;8.93;;;10.30;61.20;;;;;;5015117;28;20451;-68
2023/10/18 08:48:10;;;;;;;10.80;8.50;;;10.30;61.30;;;;;;5014919;28;20514;-68
2023/10/18 08:50:40;;;;;;;12.60;8.00;;;10.40;61.30;;;;;;5014719;28;20961;-68
2023/10/18 08:53:09;;;;;;;11.70;7.77;;;10.50;61.40;;;;;;5014709;28;20459;-68
2023/10/18 08:55:45;;;;;;;13.13;9.07;;;10.60;61.40;;;;;;5014615;28;20458;-68
2023/10/18 08:58:18;;;;;;;13.40;7.80;;;10.60;56.30;;;;;;5014679;28;20921;-68
2023/10/18 09:01:05;;;;;;;15.43;8.50;;;10.70;56.70;;;;;;5014792;28;20451;-68
2023/10/18 09:03:32;;;;;;;15.23;8.67;;;10.90;56.60;;;;;;5013608;28;20476;-68
2023/10/18 09:06:04;;;;;;;12.27;8.43;;;11.00;53.50;;;;;;5014301;28;20488;-68
2023/10/18 09:08:36;;;;;;;12.07;8.53;;;11.10;49.40;;;;;;5014313;28;20481;-68
2023/10/18 09:11:04;;;;;;;13.80;8.77;;;11.40;51.10;;;;;;5013513;28;20457;-68
2023/10/18 09:13:37;;;;;;;12.60;7.60;;;11.70;48.00;;;;;;5014067;28;20477;-68
2023/10/18 09:16:11;;;;;;;12.37;7.37;;;11.80;45.60;;;;;;5014141;28;20454;-68
2023/10/18 09:18:38;;;;;;;13.07;9.32;;;12.30;46.00;;;;;;5013981;28;20454;-71
2023/10/18 09:21:17;;;;;;;13.13;8.70;;;12.70;42.30;;;;;;5014499;28;20465;-71
2023/10/18 09:23:47;;;;;;;11.90;7.97;;;12.70;37.50;;;;;;5013940;28;20208;-71
2023/10/18 09:26:19;;;;;;;11.40;7.70;;;12.90;37.70;;;;;;5014320;28;20449;-68
2023/10/18 09:28:47;;;;;;;10.80;7.87;;;13.20;36.30;;;;;;5013919;28;20461;-68
2023/10/18 09:31:18;;;;;;;9.73;6.97;;;13.30;38.00;;;;;;5014184;28;21090;-68
2023/10/18 09:33:49;;;;;;;10.93;7.07;;;13.00;31.30;;;;;;5014311;28;20453;-68
2023/10/18 09:36:23;;;;;;;11.67;7.90;;;13.20;33.10;;;;;;5014172;28;20480;-68
2023/10/18 09:38:52;;;;;;;10.97;6.60;;;13.20;31.20;;;;;;5014084;28;20457;-68
2023/10/18 09:41:21;;;;;;;13.90;8.23;;;13.10;29.20;;;;;;5013750;28;20535;-68
2023/10/18 09:43:48;;;;;;;11.57;7.37;;;13.60;29.60;;;;;;5013818;28;20456;-69
2023/10/18 09:46:16;;;;;;;12.20;7.57;;;13.80;27.80;;;;;;5014070;28;20449;-68
2023/10/18 09:48:44;;;;;;;12.50;7.30;;;13.50;29.50;;;;;;5013693;28;20545;-68
2023/10/18 09:51:15;;;;;;;11.90;6.97;;;14.10;29.90;;;;;;5013903;28;20730;-68
2023/10/18 09:53:43;;;;;;;10.23;6.53;;;14.30;26.30;;;;;;5013565;28;20968;-68
2023/10/18 09:56:18;;;;;;;13.30;7.30;;;14.40;23.00;;;;;;5013686;28;20541;-68
2023/10/18 09:58:47;;;;;;;11.17;7.17;;;14.80;23.30;;;;;;5013684;28;20458;-68
2023/10/18 10:01:25;;;;;;;9.33;6.33;;;15.00;23.40;;;;;;5013663;28;20496;-68
2023/10/18 10:03:56;;;;;;;12.13;6.97;;;14.90;19.00;;;;;;5013461;28;20449;-68
2023/10/18 10:06:24;;;;;;;10.50;7.27;;;14.90;21.80;;;;;;5013372;28;20456;-68
2023/10/18 10:08:54;;;;;;;9.67;6.93;;;14.90;20.10;;;;;;5013392;28;20504;-68
2023/10/18 10:11:29;;;;;;;10.40;6.97;;;15.00;18.70;;;;;;5013547;28;20898;-68
2023/10/18 10:14:00;;;;;;;15.90;7.10;;;15.30;16.40;;;;;;5013272;28;20459;-68
2023/10/18 10:16:30;;;;;;;12.00;6.77;;;15.50;16.50;;;;;;5013445;28;20453;-68
2023/10/18 10:18:59;;;;;;;11.13;6.07;;;15.60;16.60;;;;;;5013176;28;20453;-68
2023/10/18 10:21:27;;;;;;;9.47;6.10;;;15.90;16.80;;;;;;5013331;28;20473;-68
2023/10/18 10:24:06;;;;;;;10.50;7.10;;;15.80;16.60;;;;;;5013239;28;20456;-68
2023/10/18 10:26:36;;;;;;;10.80;6.70;;;15.90;12.30;;;;;;5013335;28;20457;-68
2023/10/18 10:31:51;;;;;;;12.60;6.47;;;15.90;14.10;;;;;;5013134;28;21051;-68
2023/10/18 10:34:24;;;;;;;9.33;6.00;;;16.00;13.00;;;;;;5013197;28;20464;-68
2023/10/18 10:36:52;;;;;;;11.50;6.03;;;15.90;9.30;;;;;;5013024;28;20449;-68
2023/10/18 10:39:24;;;;;;;10.73;6.50;;;15.80;9.20;;;;;;5012927;28;20933;-68
2023/10/18 10:41:53;;;;;;;9.90;6.33;;;15.70;9.10;;;;;;5012086;28;20520;-68
2023/10/18 10:44:30;;;;;;;9.90;5.93;;;15.80;16.10;;;;;;5012931;28;20549;-68
2023/10/18 10:47:32;;;;;;;8.50;5.53;;;16.00;13.90;;;;;;5012919;28;20449;-68
2023/10/18 10:50:00;;;;;;;11.80;6.10;;;16.40;12.40;;;;;;5012724;28;20444;-69
2023/10/18 10:52:30;;;;;;;10.60;5.70;;;16.50;9.70;;;;;;5012758;28;20456;-68
2023/10/18 10:55:04;;;;;;;14.23;6.70;;;16.70;9.90;;;;;;5012620;28;20448;-68
2023/10/18 10:57:43;;;;;;;10.90;5.43;;;16.90;10.00;;;;;;5013156;28;20813;-68
2023/10/18 11:00:36;;;;;;;10.53;6.43;;;16.90;10.00;;;;;;5012703;28;20444;-68
2023/10/18 11:03:21;;;;;;;8.30;4.50;;;16.70;9.80;;;;;;5012852;28;20559;-68
2023/10/18 11:05:51;;;;;;;12.83;5.60;;;16.10;9.40;;;;;;4997440;28;20820;-68
2023/10/18 11:08:19;;;;;;;9.70;5.50;;;16.50;10.90;;;;;;5013187;28;20544;-68
2023/10/18 11:10:46;;;;;;;12.27;5.53;;;16.30;9.50;;;;;;5013942;28;20502;-68
2023/10/18 11:13:22;;;;;;;8.90;5.20;;;16.40;9.60;;;;;;5013038;28;20866;-68
2023/10/18 11:15:51;;;;;;;11.50;7.13;;;16.90;10.00;;;;;;5012938;28;20453;-69
2023/10/18 11:18:21;;;;;;;10.20;6.20;;;16.60;9.80;;;;;;5012988;28;20453;-68
2023/10/18 11:20:58;;;;;;;9.00;5.40;;;16.90;10.00;;;;;;5012995;28;20465;-68
2023/10/18 11:23:29;;;;;;;11.83;5.13;;;16.90;7.80;;;;;;5011568;28;20479;-68
2023/10/18 11:25:57;;;;;;;11.30;5.73;;;17.40;6.50;;;;;;5012555;28;20472;-68
2023/10/18 11:28:32;;;;;;;8.20;4.97;;;17.80;7.90;;;;;;5012363;28;20460;-68
2023/10/18 11:31:02;;;;;;;11.35;4.95;;;18.00;7.50;;;;;;5012385;28;20836;-68
2023/10/18 11:33:36;;;;;;;8.70;4.93;;;18.30;3.30;;;;;;5011532;28;20450;-71
2023/10/18 11:36:04;;;;;;;9.30;4.60;;;18.30;3.30;;;;;;5013856;28;21007;-72
2023/10/18 11:38:34;;;;;;;8.00;4.90;;;17.70;2.90;;;;;;5013632;28;20452;-71
2023/10/18 11:41:04;;;;;;;8.30;5.00;;;17.50;2.70;;;;;;5013348;28;20443;-71
2023/10/18 11:43:39;;;;;;;9.80;4.60;;;17.30;2.60;;;;;;5012030;28;20463;-72
2023/10/18 11:46:07;;;;;;;10.63;4.47;;;17.20;2.50;;;;;;5012155;28;20452;-72
2023/10/18 11:48:34;;;;;;;9.83;4.20;;;17.10;2.50;;;;;;5012046;28;20556;-72
2023/10/18 11:51:02;;;;;;;13.30;5.10;;;16.70;2.20;;;;;;5011884;28;20484;-72
2023/10/18 11:53:29;;;;;;;22.90;5.20;;;16.60;6.60;;;;;;5014544;28;20457;-71
2023/10/18 11:55:58;;;;;;;9.27;4.20;;;16.60;4.70;;;;;;5017517;28;20459;-69
2023/10/18 11:58:25;;;;;;;7.90;3.80;;;17.00;2.40;;;;;;5017070;28;20456;-68
2023/10/18 12:00:58;;;;;;;7.80;4.37;;;17.20;2.50;;;;;;5016584;28;20499;-69
2023/10/18 12:03:27;;;;;;;8.43;4.30;;;17.40;2.70;;;;;;5015585;28;20468;-69
2023/10/18 12:05:56;;;;;;;8.90;4.10;;;17.60;2.80;;;;;;5016540;28;20453;-69
2023/10/18 12:08:24;;;;;;;9.53;4.00;;;18.10;3.20;;;;;;5015999;28;20453;-68
2023/10/18 12:10:52;;;;;;;7.70;3.60;;;18.50;1.00;;;;;;5016530;28;20459;-69
2023/10/18 12:13:20;;;;;;;10.40;4.10;;;18.90;1.00;;;;;;5015961;28;20445;-69
2023/10/18 12:15:48;;;;;;;11.83;4.53;;;19.30;1.00;;;;;;5015982;28;20455;-69
2023/10/18 12:18:16;;;;;;;9.90;3.80;;;19.50;1.00;;;;;;5015126;28;20453;-69
2023/10/18 12:20:44;;;;;;;6.73;3.70;;;19.70;1.00;;;;;;5014861;28;20453;-69
2023/10/18 12:23:13;;;;;;;8.07;3.63;;;19.60;1.00;;;;;;5014502;28;20479;-69
2023/10/18 12:25:42;;;;;;;7.90;3.43;;;19.60;1.00;;;;;;5015046;28;20453;-69
2023/10/18 12:28:13;;;;;;;7.33;3.43;;;19.70;1.00;;;;;;5015261;28;20452;-69
2023/10/18 12:30:41;;;;;;;6.60;3.43;;;19.40;1.00;;;;;;5015530;28;20452;-69
2023/10/18 12:33:14;;;;;;;11.87;3.57;;;19.20;1.00;;;;;;5015286;28;20445;-69
2023/10/18 12:35:42;;;;;;;7.00;3.47;;;19.00;1.00;;;;;;5015004;28;20812;-69
2023/10/18 12:38:14;;;;;;;7.40;3.00;;;18.90;1.00;;;;;;5015259;28;20487;-69
2023/10/18 12:40:51;;;;;;;6.80;3.17;;;18.90;1.00;;;;;;5015298;28;20433;-69
2023/10/18 12:43:19;;;;;;;17.30;15.33;;;19.00;1.00;;;;;;5015464;28;20475;-69
2023/10/18 12:45:50;;;;;;;8.70;3.17;;;19.10;1.00;;;;;;5014629;28;20449;-69
2023/10/18 12:48:22;;;;;;;7.80;3.10;;;19.00;1.00;;;;;;5015087;28;20461;-69
2023/10/18 12:50:51;;;;;;;7.73;2.93;;;19.10;1.00;;;;;;5014911;28;20861;-69
2023/10/18 12:53:36;;;;;;;8.35;3.28;;;19.20;1.00;;;;;;5014319;28;20541;-68
2023/10/18 12:58:54;;;;;;;8.87;3.50;;;19.30;1.00;;;;;;5015044;28;20449;-69
2023/10/18 13:01:22;;;;;;;6.60;2.90;;;19.40;1.00;;;;;;5012371;28;20536;-69
2023/10/18 13:03:56;;;;;;;6.40;3.00;;;19.00;1.00;;;;;;5013308;28;20469;-69
2023/10/18 13:06:30;;;;;;;6.97;2.80;;;18.70;1.00;;;;;;5013633;28;20459;-69